Time;durP1;ratioP1;P1;durP2;ratioP2;P2;SDS_P1;SDS_P2;PMS_P1;PMS_P2;Temp;Humidity;BMP_temperature;BMP_pressure;BME280_temperature;BME280_humidity;BME280_pressure;Samples;Min_cycle;Max_cycle;Signal;HPM_P1;HPM_P2
2024/04/05 00:01:58;;;;;;;21.75;5.30;;;;;;;;;;5015578;29;20072;-82
2024/04/05 00:09:28;;;;;;;15.32;5.50;;;;;;;;;;4965221;29;20146;-82
2024/04/05 00:19:45;;;;;;;17.00;5.43;;;;;;;;;;4944068;29;20061;-82
2024/04/05 00:22:23;;;;;;;18.58;5.28;;;;;;;;;;4993518;29;20065;-82
2024/04/05 00:25:00;;;;;;;15.85;5.32;;;;;;;;;;4995113;29;20062;-82
2024/04/05 00:27:42;;;;;;;13.80;4.88;;;;;;;;;;5017955;29;20105;-82
2024/04/05 00:34:59;;;;;;;16.07;4.60;;;;;;;;;;5028717;29;20053;-82
2024/04/05 00:38:01;;;;;;;13.27;5.10;;;;;;;;;;4992842;29;20417;-82
2024/04/05 00:40:36;;;;;;;16.73;5.00;;;;;;;;;;5016031;29;20144;-82
2024/04/05 00:43:31;;;;;;;18.05;5.30;;;;;;;;;;4952184;29;20058;-82
2024/04/05 00:46:35;;;;;;;;;;;;;;;;;;;;;
2024/04/05 00:49:50;;;;;;;13.65;4.88;;;;;;;;;;4997359;29;20049;-82
2024/04/05 00:52:58;;;;;;;12.15;4.82;;;;;;;;;;5003183;29;20090;-82
2024/04/05 00:55:37;;;;;;;15.45;5.07;;;;;;;;;;4993754;29;20496;-82
2024/04/05 00:58:20;;;;;;;15.75;5.63;;;;;;;;;;5005413;29;20059;-82
2024/04/05 01:00:57;;;;;;;16.85;5.05;;;;;;;;;;4999665;29;20084;-82
2024/04/05 01:06:34;;;;;;;17.92;5.80;;;;;;;;;;4993059;29;20086;-82
2024/04/05 01:09:34;;;;;;;16.42;5.10;;;;;;;;;;5001244;29;20049;-82
2024/04/05 01:12:12;;;;;;;16.05;5.68;;;;;;;;;;4997077;29;20061;-82
2024/04/05 01:14:46;;;;;;;13.40;5.30;;;;;;;;;;5016922;29;20054;-82
2024/04/05 01:17:24;;;;;;;15.40;4.80;;;;;;;;;;5004386;29;20419;-83
2024/04/05 01:20:09;;;;;;;20.52;5.40;;;;;;;;;;4996190;29;20041;-83
2024/04/05 01:22:48;;;;;;;12.57;4.82;;;;;;;;;;4998542;29;20064;-82
2024/04/05 01:25:24;;;;;;;12.43;4.57;;;;;;;;;;5025106;29;20049;-82
2024/04/05 01:31:12;;;;;;;14.40;4.60;;;;;;;;;;5016628;29;20053;-82
2024/04/05 01:33:46;;;;;;;17.25;5.63;;;;;;;;;;5010564;29;20543;-82
2024/04/05 01:36:27;;;;;;;17.75;5.75;;;;;;;;;;5015168;29;20177;-82
2024/04/05 01:41:46;;;;;;;16.30;5.03;;;;;;;;;;4985208;29;20050;-82
2024/04/05 01:43:33;;;;;;;17.27;5.28;;;;;;;;;;4945367;29;20058;-82
2024/04/05 01:46:07;;;;;;;13.57;4.90;;;;;;;;;;4955060;29;20108;-82
2024/04/05 01:51:59;;;;;;;16.92;4.90;;;;;;;;;;5029771;29;20045;-82
2024/04/05 01:54:38;;;;;;;15.75;4.95;;;;;;;;;;5024778;29;20132;-82
2024/04/05 02:00:22;;;;;;;16.00;5.45;;;;;;;;;;4995616;29;20080;-82
2024/04/05 02:03:09;;;;;;;15.95;4.50;;;;;;;;;;4924202;29;20067;-82
2024/04/05 02:06:02;;;;;;;16.85;4.95;;;;;;;;;;5013463;29;20053;-82
2024/04/05 02:19:11;;;;;;;15.77;6.15;;;;;;;;;;4916501;29;20055;-82
2024/04/05 02:22:14;;;;;;;15.18;5.22;;;;;;;;;;4972066;29;20507;-82
2024/04/05 02:32:41;;;;;;;13.52;4.03;;;;;;;;;;4965405;29;20065;-82
2024/04/05 03:02:24;;;;;;;15.75;5.30;;;;;;;;;;4919422;29;20093;-82
2024/04/05 03:12:28;;;;;;;;;;;;;;;;;;4907198;30;20711;-82
2024/04/05 03:18:12;;;;;;;12.93;4.03;;;;;;;;;;4908944;29;20699;-83
2024/04/05 03:24:58;;;;;;;10.80;4.45;;;;;;;;;;4889058;29;20064;-83
2024/04/05 03:28:55;;;;;;;11.60;4.38;;;;;;;;;;4933918;29;20416;-82
2024/04/05 03:31:18;;;;;;;13.30;4.85;;;;;;;;;;4929190;29;20046;-83
2024/04/05 03:33:59;;;;;;;12.70;5.00;;;;;;;;;;4968750;29;20068;-83
2024/04/05 03:36:36;;;;;;;10.93;4.45;;;;;;;;;;4973404;29;20074;-83
2024/04/05 03:39:11;;;;;;;16.00;5.28;;;;;;;;;;4970710;29;20119;-83
2024/04/05 03:41:57;;;;;;;14.40;4.68;;;;;;;;;;4991037;29;20113;-83
2024/04/05 03:44:43;;;;;;;14.73;5.15;;;;;;;;;;5004154;29;20053;-82
2024/04/05 03:47:29;;;;;;;13.07;3.80;;;;;;;;;;5012415;29;20060;-82
2024/04/05 03:55:15;;;;;;;15.15;5.00;;;;;;;;;;4902130;29;20111;-82
2024/04/05 03:58:09;;;;;;;15.68;5.10;;;;;;;;;;4961960;29;20141;-82
2024/04/05 04:02:18;;;;;;;10.75;4.28;;;;;;;;;;4988391;29;20077;-82
2024/04/05 04:05:51;;;;;;;14.80;4.95;;;;;;;;;;4897689;30;21265;-82
2024/04/05 04:08:34;;;;;;;12.40;4.40;;;;;;;;;;4907366;29;20071;-82
2024/04/05 04:11:09;;;;;;;13.93;5.35;;;;;;;;;;4993709;29;20090;-83
2024/04/05 04:22:02;;;;;;;18.83;5.47;;;;;;;;;;4932908;29;20082;-82
2024/04/05 04:32:42;;;;;;;16.92;5.53;;;;;;;;;;4964260;29;20131;-83
2024/04/05 04:35:32;;;;;;;12.18;4.50;;;;;;;;;;4980626;29;20395;-83
2024/04/05 04:43:12;;;;;;;12.82;4.85;;;;;;;;;;4977484;29;20051;-83
2024/04/05 04:45:57;;;;;;;10.52;4.28;;;;;;;;;;5008204;29;20500;-83
2024/04/05 04:48:30;;;;;;;14.57;5.13;;;;;;;;;;5019827;29;20279;-83
2024/04/05 04:51:05;;;;;;;10.82;5.00;;;;;;;;;;4999409;29;20064;-83
2024/04/05 04:53:45;;;;;;;14.27;4.70;;;;;;;;;;5010106;29;20120;-83
2024/04/05 04:56:41;;;;;;;14.00;4.85;;;;;;;;;;5012396;29;20045;-83
2024/04/05 04:59:28;;;;;;;13.00;4.80;;;;;;;;;;5005129;29;20128;-83
2024/04/05 05:02:53;;;;;;;10.93;4.90;;;;;;;;;;4998264;29;20141;-83
2024/04/05 05:05:44;;;;;;;16.27;5.65;;;;;;;;;;4991081;29;20053;-83
2024/04/05 05:08:29;;;;;;;;;;;;;;;;;;;;;
2024/04/05 05:11:11;;;;;;;12.80;4.30;;;;;;;;;;5002495;29;20069;-83
2024/04/05 05:13:42;;;;;;;11.80;4.68;;;;;;;;;;4989740;29;20049;-83
2024/04/05 05:16:24;;;;;;;17.45;5.28;;;;;;;;;;4991294;29;20089;-83
2024/04/05 05:19:07;;;;;;;15.20;5.43;;;;;;;;;;4989753;29;20115;-83
2024/04/05 05:21:45;;;;;;;13.50;4.82;;;;;;;;;;4989237;29;20140;-83
2024/04/05 05:24:25;;;;;;;20.40;6.25;;;;;;;;;;4999216;29;20058;-83
2024/04/05 05:27:15;;;;;;;11.38;4.82;;;;;;;;;;5024013;29;20136;-83
2024/04/05 05:30:04;;;;;;;14.13;5.88;;;;;;;;;;4991719;29;20515;-83
2024/04/05 05:32:51;;;;;;;20.00;5.90;;;;;;;;;;4973732;29;20105;-83
2024/04/05 05:35:48;;;;;;;15.07;5.25;;;;;;;;;;4984804;29;20798;-83
2024/04/05 05:45:54;;;;;;;11.95;4.15;;;;;;;;;;4962061;29;20320;-83
2024/04/05 05:49:06;;;;;;;;;;;;;;;;;;;;;
2024/04/05 05:51:51;;;;;;;15.10;5.38;;;;;;;;;;4993824;29;20052;-82
2024/04/05 05:54:26;;;;;;;14.18;4.72;;;;;;;;;;4994705;29;20638;-82
2024/04/05 05:57:06;;;;;;;17.58;5.03;;;;;;;;;;5003000;29;20140;-83
2024/04/05 06:00:04;;;;;;;;;;;;;;;;;;;;;
2024/04/05 06:02:42;;;;;;;17.65;5.65;;;;;;;;;;4984625;29;20061;-82
2024/04/05 06:05:15;;;;;;;14.52;5.63;;;;;;;;;;5037986;29;20057;-83
2024/04/05 06:07:57;;;;;;;12.07;4.45;;;;;;;;;;5020608;29;20104;-83
2024/04/05 06:10:55;;;;;;;12.07;4.70;;;;;;;;;;4994274;29;20143;-83
2024/04/05 06:14:08;;;;;;;;;;;;;;;;;;;;;
2024/04/05 06:16:41;;;;;;;11.07;5.03;;;;;;;;;;5001523;29;20057;-84
2024/04/05 06:19:14;;;;;;;13.52;4.93;;;;;;;;;;5011436;29;20050;-83
2024/04/05 06:21:49;;;;;;;10.15;4.60;;;;;;;;;;4987884;29;20054;-83
2024/04/05 06:24:20;;;;;;;;;;;;;;;;;;5021855;29;20545;-83
2024/04/05 06:26:54;;;;;;;9.90;5.20;;;;;;;;;;4988444;29;19943;-83
2024/04/05 06:29:27;;;;;;;15.32;5.05;;;;;;;;;;4996576;29;20109;-83
2024/04/05 06:31:59;;;;;;;12.55;4.38;;;;;;;;;;4995169;29;20057;-83
2024/04/05 06:34:37;;;;;;;12.73;4.47;;;;;;;;;;5008788;29;20102;-83
2024/04/05 06:37:09;;;;;;;15.40;4.90;;;;;;;;;;5011130;29;20057;-83
2024/04/05 06:39:52;;;;;;;11.85;4.03;;;;;;;;;;5016220;29;20132;-83
2024/04/05 06:42:36;;;;;;;11.80;4.70;;;;;;;;;;4988900;29;20060;-83
2024/04/05 06:45:13;;;;;;;9.35;3.65;;;;;;;;;;5008778;29;20065;-84
2024/04/05 06:47:55;;;;;;;10.60;4.30;;;;;;;;;;5007891;29;20060;-84
2024/04/05 06:50:35;;;;;;;9.48;4.57;;;;;;;;;;4996638;29;20077;-84
2024/04/05 06:53:21;;;;;;;11.73;4.38;;;;;;;;;;4992052;29;20061;-83
2024/04/05 06:55:53;;;;;;;9.75;3.85;;;;;;;;;;5019710;29;20045;-85
2024/04/05 06:58:29;;;;;;;13.23;4.20;;;;;;;;;;5004432;29;20121;-82
2024/04/05 07:01:01;;;;;;;9.38;3.95;;;;;;;;;;5013519;29;20049;-83
2024/04/05 07:03:33;;;;;;;11.45;4.15;;;;;;;;;;5026110;29;20049;-83
2024/04/05 07:06:04;;;;;;;13.40;4.00;;;;;;;;;;4991728;29;20514;-83
2024/04/05 07:08:36;;;;;;;12.18;4.20;;;;;;;;;;5001097;29;20049;-83
2024/04/05 07:11:09;;;;;;;14.47;4.70;;;;;;;;;;5014705;29;20049;-83
2024/04/05 07:13:42;;;;;;;10.77;4.72;;;;;;;;;;5010184;29;20076;-83
2024/04/05 07:16:15;;;;;;;10.02;3.55;;;;;;;;;;5010482;29;20557;-83
2024/04/05 07:18:49;;;;;;;9.13;3.70;;;;;;;;;;4997604;29;20058;-84
2024/04/05 07:21:20;;;;;;;10.23;3.70;;;;;;;;;;5010041;29;20045;-84
2024/04/05 07:23:54;;;;;;;9.52;3.97;;;;;;;;;;4993466;29;20321;-83
2024/04/05 07:26:25;;;;;;;11.48;3.83;;;;;;;;;;4987571;29;20053;-83
2024/04/05 07:28:59;;;;;;;10.80;4.38;;;;;;;;;;5021790;29;20049;-84
2024/04/05 07:31:33;;;;;;;9.77;4.25;;;;;;;;;;5015562;29;20079;-83
2024/04/05 07:34:05;;;;;;;10.63;3.80;;;;;;;;;;5009627;29;20511;-83
2024/04/05 07:36:36;;;;;;;10.60;3.63;;;;;;;;;;5011901;29;20054;-84
2024/04/05 07:39:08;;;;;;;10.13;3.55;;;;;;;;;;5013960;29;20053;-89
2024/04/05 07:41:39;;;;;;;8.82;3.50;;;;;;;;;;4996821;29;20053;-84
2024/04/05 07:44:14;;;;;;;7.80;2.80;;;;;;;;;;4997437;29;20076;-86
2024/04/05 07:46:45;;;;;;;7.97;2.65;;;;;;;;;;5002302;29;20140;-85
2024/04/05 07:49:17;;;;;;;8.35;3.70;;;;;;;;;;4979337;29;20124;-88
2024/04/05 07:51:48;;;;;;;8.95;3.25;;;;;;;;;;4993587;29;23169;-88
2024/04/05 07:54:20;;;;;;;6.45;2.92;;;;;;;;;;5011598;29;20065;-87
2024/04/05 07:56:53;;;;;;;8.70;3.15;;;;;;;;;;5026127;29;20057;-86
2024/04/05 07:59:27;;;;;;;8.38;2.70;;;;;;;;;;4991421;29;20571;-88
2024/04/05 08:01:59;;;;;;;6.45;2.20;;;;;;;;;;4999479;29;20727;-86
2024/04/05 08:04:34;;;;;;;7.80;2.67;;;;;;;;;;5011266;29;20049;-83
2024/04/05 08:07:05;;;;;;;7.18;2.80;;;;;;;;;;5013944;29;20046;-85
2024/04/05 08:09:37;;;;;;;6.75;2.92;;;;;;;;;;5025192;29;20041;-86
2024/04/05 08:12:07;;;;;;;7.05;2.30;;;;;;;;;;4996100;29;20053;-84
2024/04/05 08:14:44;;;;;;;6.03;2.50;;;;;;;;;;5009718;29;20061;-84
2024/04/05 08:17:14;;;;;;;8.88;3.35;;;;;;;;;;4991388;29;20064;-83
2024/04/05 08:19:51;;;;;;;8.75;3.70;;;;;;;;;;4997450;29;20063;-82
2024/04/05 08:22:22;;;;;;;5.97;2.45;;;;;;;;;;5004010;29;20080;-84
2024/04/05 08:24:54;;;;;;;9.02;3.08;;;;;;;;;;5008276;29;20061;-86
2024/04/05 08:27:26;;;;;;;5.93;2.30;;;;;;;;;;4997687;29;20041;-86
2024/04/05 08:30:02;;;;;;;6.60;2.75;;;;;;;;;;5006013;29;20053;-86
2024/04/05 08:32:33;;;;;;;5.07;1.73;;;;;;;;;;5005536;29;20101;-87
2024/04/05 08:35:05;;;;;;;4.75;2.20;;;;;;;;;;5013347;29;20061;-87
2024/04/05 08:37:40;;;;;;;6.80;2.45;;;;;;;;;;4999718;29;20412;-87
2024/04/05 08:40:12;;;;;;;6.55;2.20;;;;;;;;;;5023920;29;20042;-89
2024/04/05 08:42:49;;;;;;;5.38;2.80;;;;;;;;;;4997104;29;20068;-88
2024/04/05 08:45:23;;;;;;;9.23;2.40;;;;;;;;;;4992011;29;20046;-88
2024/04/05 08:47:58;;;;;;;8.13;2.78;;;;;;;;;;5011911;29;20049;-88
2024/04/05 08:50:30;;;;;;;5.55;2.20;;;;;;;;;;4996661;29;20087;-87
2024/04/05 08:53:02;;;;;;;5.30;2.25;;;;;;;;;;4991441;29;20067;-87
2024/04/05 08:55:38;;;;;;;4.40;1.70;;;;;;;;;;5013071;29;20056;-88
2024/04/05 08:58:13;;;;;;;6.45;2.33;;;;;;;;;;4996699;29;20076;-86
2024/04/05 09:00:48;;;;;;;4.30;2.08;;;;;;;;;;5008898;29;20538;-87
2024/04/05 09:03:20;;;;;;;5.60;2.20;;;;;;;;;;4994276;29;20065;-87
2024/04/05 09:05:52;;;;;;;5.68;2.20;;;;;;;;;;4995889;29;20078;-87
2024/04/05 09:08:46;;;;;;;8.98;2.33;;;;;;;;;;5007889;29;20064;-87
2024/04/05 09:11:19;;;;;;;4.65;1.73;;;;;;;;;;5030225;29;20049;-88
2024/04/05 09:13:56;;;;;;;5.88;2.17;;;;;;;;;;5013102;29;20574;-88
2024/04/05 09:16:31;;;;;;;4.80;2.00;;;;;;;;;;4979269;29;20089;-87
2024/04/05 09:19:03;;;;;;;4.78;1.77;;;;;;;;;;5008505;29;20045;-88
2024/04/05 09:21:34;;;;;;;4.95;1.80;;;;;;;;;;5018575;29;20049;-88
2024/04/05 09:24:07;;;;;;;9.25;2.40;;;;;;;;;;4989103;29;20052;-88
2024/04/05 09:26:38;;;;;;;6.28;1.75;;;;;;;;;;5033159;29;20044;-90
2024/04/05 09:29:12;;;;;;;6.07;2.22;;;;;;;;;;5005326;29;20053;-90
2024/04/05 09:31:49;;;;;;;5.90;2.03;;;;;;;;;;5006322;29;20046;-90
2024/04/05 09:34:25;;;;;;;4.93;2.53;;;;;;;;;;5021533;29;20048;-91
2024/04/05 09:36:59;;;;;;;7.13;2.70;;;;;;;;;;4993342;29;20045;-90
2024/04/05 09:39:31;;;;;;;4.13;1.77;;;;;;;;;;5017296;29;20073;-88
2024/04/05 09:42:02;;;;;;;4.72;1.92;;;;;;;;;;5002324;29;20064;-88
2024/04/05 09:44:33;;;;;;;4.75;1.85;;;;;;;;;;5014282;29;20046;-87
2024/04/05 09:47:06;;;;;;;4.50;1.98;;;;;;;;;;5025045;29;20054;-88
2024/04/05 09:49:38;;;;;;;5.57;2.17;;;;;;;;;;5007823;29;20063;-89
2024/04/05 09:52:12;;;;;;;6.10;2.53;;;;;;;;;;5002175;29;20112;-88
2024/04/05 09:54:45;;;;;;;5.25;1.92;;;;;;;;;;5017506;29;20098;-89
2024/04/05 09:57:19;;;;;;;5.07;2.42;;;;;;;;;;5009387;29;20068;-89
2024/04/05 09:59:53;;;;;;;4.05;1.60;;;;;;;;;;5008467;29;20483;-89
2024/04/05 10:02:27;;;;;;;3.93;1.83;;;;;;;;;;5028925;29;20041;-88
2024/04/05 10:04:59;;;;;;;5.20;2.00;;;;;;;;;;5001527;29;20052;-88
2024/04/05 10:07:30;;;;;;;5.63;1.90;;;;;;;;;;5028026;29;20054;-88
2024/04/05 10:10:12;;;;;;;7.95;1.98;;;;;;;;;;5003710;29;20049;-89
2024/04/05 10:12:43;;;;;;;5.05;1.92;;;;;;;;;;4996527;29;20076;-88
2024/04/05 10:15:24;;;;;;;6.28;2.42;;;;;;;;;;5007547;29;20057;-89
2024/04/05 10:18:00;;;;;;;8.87;2.10;;;;;;;;;;5016391;29;20343;-88
2024/04/05 10:23:36;;;;;;;6.47;2.33;;;;;;;;;;5954420;23;20075;-87
2024/04/05 10:26:10;;;;;;;4.78;1.70;;;;;;;;;;5067457;29;20056;-82
2024/04/05 10:28:42;;;;;;;;;;;;;;;;;;5030927;29;20067;-83
2024/04/05 10:31:15;;;;;;;5.32;1.77;;;;;;;;;;5039217;29;19934;-82
2024/04/05 10:33:48;;;;;;;10.07;2.00;;;;;;;;;;5019781;29;20779;-82
2024/04/05 10:36:19;;;;;;;5.82;1.88;;;;;;;;;;5027124;29;20116;-82
2024/04/05 10:38:55;;;;;;;4.78;2.15;;;;;;;;;;5043988;29;20048;-84
2024/04/05 10:41:26;;;;;;;6.50;1.85;;;;;;;;;;5050998;29;20141;-86
2024/04/05 10:44:04;;;;;;;5.13;2.30;;;;;;;;;;5036369;29;20513;-83
2024/04/05 10:46:37;;;;;;;3.33;1.52;;;;;;;;;;5060924;29;20055;-83
2024/04/05 10:49:11;;;;;;;9.15;3.05;;;;;;;;;;5045349;29;20586;-83
2024/04/05 10:51:42;;;;;;;6.07;2.20;;;;;;;;;;5061852;29;20056;-85
2024/04/05 10:54:14;;;;;;;7.80;2.53;;;;;;;;;;5043241;29;20559;-84
2024/04/05 10:56:49;;;;;;;4.80;1.73;;;;;;;;;;5043374;29;20103;-84
2024/04/05 10:59:21;;;;;;;12.60;5.50;;;;;;;;;;5040383;29;20143;-82
2024/04/05 11:01:52;;;;;;;6.53;2.42;;;;;;;;;;5035651;29;20434;-83
2024/04/05 11:04:26;;;;;;;3.33;1.42;;;;;;;;;;5035882;29;20052;-83
2024/04/05 11:06:59;;;;;;;3.38;1.70;;;;;;;;;;5032654;29;20059;-83
2024/04/05 11:09:35;;;;;;;3.72;1.48;;;;;;;;;;5044344;29;20061;-83
2024/04/05 11:12:06;;;;;;;4.53;1.70;;;;;;;;;;5030515;29;20049;-83
2024/04/05 11:14:40;;;;;;;7.25;1.73;;;;;;;;;;5044007;29;20157;-84
2024/04/05 11:17:17;;;;;;;6.32;1.67;;;;;;;;;;5058112;29;20160;-83
2024/04/05 11:19:51;;;;;;;3.80;1.70;;;;;;;;;;5048406;29;20053;-84
2024/04/05 11:22:22;;;;;;;5.22;1.48;;;;;;;;;;5061980;29;20049;-82
2024/04/05 11:24:57;;;;;;;4.40;1.73;;;;;;;;;;5030436;29;20072;-83
2024/04/05 11:27:29;;;;;;;3.95;1.60;;;;;;;;;;5045684;29;20060;-84
2024/04/05 11:30:03;;;;;;;3.63;1.55;;;;;;;;;;5042921;29;20145;-84
2024/04/05 11:32:40;;;;;;;4.88;1.55;;;;;;;;;;5052961;29;20045;-84
2024/04/05 11:35:16;;;;;;;3.42;1.48;;;;;;;;;;5039200;29;20743;-84
2024/04/05 11:37:47;;;;;;;4.28;1.60;;;;;;;;;;5044933;29;20048;-85
2024/04/05 11:40:19;;;;;;;4.05;1.30;;;;;;;;;;5031533;29;20047;-84
2024/04/05 11:42:54;;;;;;;2.45;1.20;;;;;;;;;;5043013;29;20144;-84
2024/04/05 11:45:28;;;;;;;3.90;1.55;;;;;;;;;;5027201;29;20115;-84
2024/04/05 11:47:59;;;;;;;3.30;1.65;;;;;;;;;;5049150;29;20112;-84
2024/04/05 11:50:33;;;;;;;6.07;1.52;;;;;;;;;;5029241;29;20063;-84
2024/04/05 11:53:04;;;;;;;2.67;1.50;;;;;;;;;;5035245;29;20045;-84
2024/04/05 11:55:40;;;;;;;5.30;1.67;;;;;;;;;;5022754;29;20056;-84
2024/04/05 11:58:11;;;;;;;7.03;1.98;;;;;;;;;;5046672;29;20056;-84
2024/04/05 12:00:48;;;;;;;4.40;1.30;;;;;;;;;;5039292;29;20048;-83
2024/04/05 12:03:19;;;;;;;5.03;1.60;;;;;;;;;;5047667;29;20447;-83
2024/04/05 12:05:53;;;;;;;3.97;1.92;;;;;;;;;;5050509;29;20060;-82
2024/04/05 12:08:24;;;;;;;;;;;;;;;;;;5059770;29;20052;-85
2024/04/05 12:10:56;;;;;;;4.85;2.08;;;;;;;;;;5046541;29;19990;-82
2024/04/05 12:13:27;;;;;;;5.18;1.83;;;;;;;;;;5062608;29;20055;-85
2024/04/05 12:15:59;;;;;;;4.28;1.40;;;;;;;;;;5012987;29;20064;-85
2024/04/05 12:18:30;;;;;;;5.85;1.80;;;;;;;;;;5048415;29;20525;-84
2024/04/05 12:21:04;;;;;;;4.80;1.80;;;;;;;;;;5057277;29;20057;-84
2024/04/05 12:23:36;;;;;;;4.28;1.88;;;;;;;;;;5049731;29;20091;-85
2024/04/05 12:26:09;;;;;;;3.00;1.90;;;;;;;;;;5034724;29;20076;-85
2024/04/05 12:28:40;;;;;;;4.97;1.48;;;;;;;;;;5014877;29;20052;-84
2024/04/05 12:31:12;;;;;;;6.10;1.63;;;;;;;;;;5067721;29;20063;-84
2024/04/05 12:33:45;;;;;;;5.60;1.50;;;;;;;;;;5034094;29;20040;-81
2024/04/05 12:36:20;;;;;;;4.10;1.60;;;;;;;;;;5048187;29;20072;-81
2024/04/05 12:38:56;;;;;;;3.73;1.77;;;;;;;;;;5040488;29;20049;-84
2024/04/05 12:41:31;;;;;;;2.20;1.30;;;;;;;;;;5020157;29;20327;-83
2024/04/05 12:44:03;;;;;;;3.25;1.60;;;;;;;;;;5052186;29;20067;-85
2024/04/05 12:52:36;;;;;;;3.10;1.35;;;;;;;;;;5058065;24;20307;-86
2024/04/05 12:55:10;;;;;;;3.03;1.63;;;;;;;;;;5039093;29;20053;-90
2024/04/05 12:57:42;;;;;;;3.22;1.52;;;;;;;;;;5007116;29;20080;-87
2024/04/05 13:00:15;;;;;;;4.50;2.05;;;;;;;;;;5046777;29;20053;-86
2024/04/05 13:02:49;;;;;;;2.97;1.33;;;;;;;;;;5104202;23;20073;-87
2024/04/05 13:05:20;;;;;;;4.63;1.83;;;;;;;;;;5774746;23;20068;-87
2024/04/05 13:07:53;;;;;;;3.55;1.45;;;;;;;;;;5041858;29;20057;-85
2024/04/05 13:13:13;;;;;;;2.85;1.67;;;;;;;;;;5005232;29;20805;-86
2024/04/05 13:15:44;;;;;;;5.80;1.77;;;;;;;;;;5178753;23;20112;-86
2024/04/05 13:18:19;;;;;;;2.73;1.57;;;;;;;;;;5046471;29;20053;-86
2024/04/05 13:20:50;;;;;;;3.22;1.83;;;;;;;;;;5196982;23;20300;-86
2024/04/05 13:23:23;;;;;;;3.40;1.10;;;;;;;;;;5013268;29;20062;-85
2024/04/05 13:25:54;;;;;;;2.35;1.45;;;;;;;;;;5016348;29;20056;-86
2024/04/05 13:28:28;;;;;;;2.55;1.27;;;;;;;;;;5015537;29;20112;-87
2024/04/05 13:30:59;;;;;;;1.58;1.02;;;;;;;;;;5019899;29;20057;-88
2024/04/05 13:33:31;;;;;;;2.63;1.23;;;;;;;;;;4991375;29;20053;-87
2024/04/05 13:36:06;;;;;;;3.72;1.42;;;;;;;;;;5021312;29;20053;-88
2024/04/05 13:38:37;;;;;;;;;;;;;;;;;;5000566;29;20044;-87
2024/04/05 13:41:10;;;;;;;2.75;1.35;;;;;;;;;;5011524;29;19924;-88
2024/04/05 13:43:42;;;;;;;2.63;1.08;;;;;;;;;;5010047;29;20053;-85
2024/04/05 13:46:34;;;;;;;3.72;1.52;;;;;;;;;;5033082;29;20052;-89
2024/04/05 13:49:05;;;;;;;3.30;1.40;;;;;;;;;;5014439;29;20049;-87
2024/04/05 13:51:38;;;;;;;2.45;1.13;;;;;;;;;;5015046;29;20142;-89
2024/04/05 13:54:12;;;;;;;;;;;;;;;;;;5063261;23;20116;-88
2024/04/05 13:56:56;;;;;;;3.03;1.48;;;;;;;;;;5055037;29;19923;-85
2024/04/05 14:05:20;;;;;;;2.58;1.30;;;;;;;;;;5068611;29;20048;-88
2024/04/05 14:07:52;;;;;;;3.58;1.00;;;;;;;;;;5047368;29;20653;-91
2024/04/05 14:10:44;;;;;;;2.90;1.17;;;;;;;;;;5021851;29;20059;-89
2024/04/05 14:13:16;;;;;;;2.45;1.13;;;;;;;;;;5058145;29;20060;-86
2024/04/05 14:15:57;;;;;;;3.00;1.45;;;;;;;;;;5038446;29;20075;-89
2024/04/05 14:18:30;;;;;;;3.08;1.25;;;;;;;;;;5079033;29;20064;-87
2024/04/05 14:21:08;;;;;;;1.40;0.88;;;;;;;;;;5050993;29;20044;-90
2024/04/05 14:23:40;;;;;;;2.25;0.93;;;;;;;;;;5063489;29;20040;-90
2024/04/05 14:26:12;;;;;;;3.35;1.60;;;;;;;;;;5046250;29;20063;-89
2024/04/05 14:28:45;;;;;;;2.08;0.90;;;;;;;;;;5058010;29;20055;-87
2024/04/05 14:31:17;;;;;;;2.70;1.27;;;;;;;;;;5054742;29;20100;-90
2024/04/05 14:33:51;;;;;;;2.33;1.10;;;;;;;;;;5034562;29;20067;-91
2024/04/05 14:36:23;;;;;;;1.98;1.25;;;;;;;;;;5060426;29;20478;-87
2024/04/05 14:38:57;;;;;;;1.85;0.82;;;;;;;;;;5073973;29;20040;-89
2024/04/05 14:41:29;;;;;;;3.13;0.90;;;;;;;;;;5075179;29;20044;-86
2024/04/05 14:44:01;;;;;;;4.55;1.02;;;;;;;;;;5079273;29;20187;-88
2024/04/05 14:46:35;;;;;;;2.97;1.00;;;;;;;;;;5055312;29;20112;-87
2024/04/05 14:49:06;;;;;;;2.80;1.23;;;;;;;;;;5068342;29;20050;-90
2024/04/05 14:51:41;;;;;;;3.60;1.03;;;;;;;;;;5068348;29;20534;-87
2024/04/05 14:54:18;;;;;;;1.63;0.95;;;;;;;;;;5053783;29;20047;-89
2024/04/05 14:56:50;;;;;;;3.63;1.10;;;;;;;;;;5028597;29;20052;-90
2024/04/05 14:59:23;;;;;;;3.28;1.20;;;;;;;;;;5062829;29;20158;-87
2024/04/05 15:01:56;;;;;;;2.90;1.10;;;;;;;;;;5055287;29;20052;-87
2024/04/05 15:04:27;;;;;;;2.28;1.10;;;;;;;;;;5063521;29;20087;-87
2024/04/05 15:07:01;;;;;;;2.03;1.00;;;;;;;;;;5064782;29;20422;-87
2024/04/05 15:09:32;;;;;;;3.45;1.05;;;;;;;;;;5044604;29;20115;-82
2024/04/05 15:12:07;;;;;;;2.85;1.35;;;;;;;;;;5051428;29;20063;-83
2024/04/05 15:14:39;;;;;;;1.83;0.90;;;;;;;;;;5066126;29;20052;-84
2024/04/05 15:17:11;;;;;;;3.35;1.20;;;;;;;;;;5061245;29;20056;-83
2024/04/05 15:19:44;;;;;;;2.00;0.90;;;;;;;;;;5069697;29;20062;-81
2024/04/05 15:22:16;;;;;;;3.22;1.10;;;;;;;;;;5048466;29;20040;-81
2024/04/05 15:24:47;;;;;;;2.85;1.17;;;;;;;;;;5066204;29;20048;-80
2024/04/05 15:27:20;;;;;;;2.85;1.08;;;;;;;;;;5060336;29;20608;-82
2024/04/05 15:29:52;;;;;;;1.52;0.93;;;;;;;;;;5044524;29;20044;-83
2024/04/05 15:32:25;;;;;;;3.15;1.17;;;;;;;;;;5070234;29;20052;-87
2024/04/05 15:35:00;;;;;;;3.83;1.10;;;;;;;;;;5064705;29;20554;-84
2024/04/05 15:37:32;;;;;;;2.47;1.42;;;;;;;;;;5065641;29;20052;-85
2024/04/05 15:40:05;;;;;;;5.60;1.85;;;;;;;;;;5049795;29;20059;-82
2024/04/05 15:42:36;;;;;;;3.15;1.10;;;;;;;;;;5046973;29;20055;-83
2024/04/05 15:45:10;;;;;;;3.03;1.33;;;;;;;;;;5064937;29;20059;-82
2024/04/05 15:47:42;;;;;;;1.30;1.00;;;;;;;;;;5048171;29;20110;-85
2024/04/05 15:50:13;;;;;;;1.77;0.90;;;;;;;;;;5062317;29;20044;-81
2024/04/05 15:52:45;;;;;;;4.18;1.30;;;;;;;;;;5063157;29;20569;-84
2024/04/05 15:55:17;;;;;;;1.90;0.90;;;;;;;;;;5063031;29;21020;-83
2024/04/05 15:57:49;;;;;;;1.65;1.02;;;;;;;;;;5040175;29;20056;-82
2024/04/05 16:00:22;;;;;;;2.55;0.80;;;;;;;;;;5044094;29;20410;-82
2024/04/05 16:02:55;;;;;;;2.15;1.00;;;;;;;;;;5036052;29;20090;-82
2024/04/05 16:05:26;;;;;;;3.90;0.90;;;;;;;;;;5020102;29;20064;-82
2024/04/05 16:07:57;;;;;;;3.67;1.20;;;;;;;;;;5060735;29;20071;-80
2024/04/05 16:10:29;;;;;;;1.83;0.75;;;;;;;;;;5073568;29;20040;-83
2024/04/05 16:13:01;;;;;;;1.30;0.70;;;;;;;;;;5061366;29;20542;-82
2024/04/05 16:15:34;;;;;;;3.38;1.02;;;;;;;;;;5063945;29;20096;-86
2024/04/05 16:18:06;;;;;;;1.67;0.82;;;;;;;;;;5061350;29;20052;-84
2024/04/05 16:20:37;;;;;;;3.25;0.90;;;;;;;;;;5049319;29;20044;-86
2024/04/05 16:23:09;;;;;;;2.80;0.93;;;;;;;;;;5035087;29;20687;-81
2024/04/05 16:25:46;;;;;;;2.13;0.75;;;;;;;;;;5042509;29;20063;-83
2024/04/05 16:28:18;;;;;;;5.73;1.03;;;;;;;;;;5061570;29;20086;-84
2024/04/05 16:30:50;;;;;;;2.95;0.93;;;;;;;;;;5043470;29;20060;-84
2024/04/05 16:33:24;;;;;;;4.65;0.85;;;;;;;;;;5045703;29;20064;-82
2024/04/05 16:35:56;;;;;;;1.70;0.88;;;;;;;;;;5042564;29;20056;-82
2024/04/05 16:38:31;;;;;;;3.20;1.17;;;;;;;;;;5055928;29;20067;-82
2024/04/05 16:41:02;;;;;;;1.55;0.93;;;;;;;;;;5017209;29;20147;-81
2024/04/05 16:43:36;;;;;;;1.63;1.10;;;;;;;;;;5054972;29;20055;-81
2024/04/05 16:46:09;;;;;;;3.85;0.98;;;;;;;;;;5054049;29;20055;-82
2024/04/05 16:48:41;;;;;;;2.85;0.93;;;;;;;;;;5052330;29;20091;-81
2024/04/05 16:51:14;;;;;;;2.25;1.20;;;;;;;;;;5045267;29;20063;-81
2024/04/05 16:53:47;;;;;;;2.58;1.02;;;;;;;;;;5058622;29;20063;-81
2024/04/05 16:56:21;;;;;;;2.22;1.27;;;;;;;;;;5057495;29;20434;-84
2024/04/05 16:58:54;;;;;;;3.30;1.15;;;;;;;;;;5058997;29;20048;-83
2024/04/05 17:01:32;;;;;;;1.90;1.10;;;;;;;;;;5055848;29;20055;-84
2024/04/05 17:04:04;;;;;;;3.13;1.20;;;;;;;;;;5042019;29;20094;-81
2024/04/05 17:06:37;;;;;;;2.80;1.10;;;;;;;;;;5055458;29;20051;-83
2024/04/05 17:09:11;;;;;;;2.17;1.10;;;;;;;;;;5056825;29;20055;-83
2024/04/05 17:11:43;;;;;;;3.13;1.30;;;;;;;;;;5056212;29;20262;-84
2024/04/05 17:14:16;;;;;;;1.65;0.95;;;;;;;;;;5038652;29;20067;-83
2024/04/05 17:16:49;;;;;;;2.60;1.05;;;;;;;;;;5056509;29;20119;-84
2024/04/05 17:19:21;;;;;;;4.17;1.23;;;;;;;;;;5063322;29;20538;-86
2024/04/05 17:21:52;;;;;;;2.60;1.17;;;;;;;;;;5041455;29;20887;-83
2024/04/05 17:24:24;;;;;;;4.95;2.10;;;;;;;;;;5041426;29;20048;-82
2024/04/05 17:26:55;;;;;;;2.55;0.90;;;;;;;;;;5058719;29;20047;-83
2024/04/05 17:29:28;;;;;;;2.33;1.00;;;;;;;;;;5055883;29;20048;-82
2024/04/05 17:32:00;;;;;;;3.35;1.25;;;;;;;;;;5059261;29;20173;-84
2024/04/05 17:34:36;;;;;;;2.57;1.20;;;;;;;;;;5044480;29;20143;-84
2024/04/05 17:37:07;;;;;;;2.80;1.35;;;;;;;;;;5042084;29;20048;-84
2024/04/05 17:39:38;;;;;;;2.50;1.20;;;;;;;;;;5051250;29;20848;-83
2024/04/05 17:42:10;;;;;;;2.38;1.10;;;;;;;;;;5037021;29;20056;-82
2024/04/05 17:44:43;;;;;;;3.53;1.33;;;;;;;;;;5060582;29;20054;-82
2024/04/05 17:47:18;;;;;;;2.25;1.33;;;;;;;;;;5063092;29;20802;-84
2024/04/05 17:49:50;;;;;;;2.67;1.35;;;;;;;;;;5029029;29;20130;-84
2024/04/05 17:52:24;;;;;;;1.88;1.38;;;;;;;;;;5056556;29;20151;-83
2024/04/05 17:54:57;;;;;;;3.50;1.23;;;;;;;;;;5045734;29;20059;-82
2024/04/05 17:57:28;;;;;;;3.47;1.20;;;;;;;;;;5054978;29;20143;-81
2024/04/05 18:00:00;;;;;;;2.25;1.05;;;;;;;;;;5039902;29;20867;-83
2024/04/05 18:02:33;;;;;;;2.65;1.30;;;;;;;;;;5049562;29;20080;-83
2024/04/05 18:05:06;;;;;;;2.42;1.10;;;;;;;;;;5046202;29;20052;-82